Time;durP1;ratioP1;P1;durP2;ratioP2;P2;SDS_P1;SDS_P2;PMS_P1;PMS_P2;Temp;Humidity;BMP_temperature;BMP_pressure;BME280_temperature;BME280_humidity;BME280_pressure;Samples;Min_cycle;Max_cycle;Signal;HPM_P1;HPM_P2
2023/06/16 00:02:07;;;;;;;4.68;2.20;;;21.40;65.60;;;;;;4994021;28;20056;-55
2023/06/16 00:04:33;;;;;;;4.22;2.65;;;21.40;65.80;;;;;;5012312;28;20022;-56
2023/06/16 00:07:01;;;;;;;6.28;1.80;;;21.30;66.20;;;;;;4994136;28;20084;-57
2023/06/16 00:09:27;;;;;;;4.70;2.67;;;21.20;66.30;;;;;;5012117;28;20117;-55
2023/06/16 00:11:55;;;;;;;4.68;2.38;;;21.20;66.50;;;;;;5010743;28;20109;-56
2023/06/16 00:14:21;;;;;;;3.35;1.70;;;21.10;66.90;;;;;;5012161;28;20040;-53
2023/06/16 00:16:48;;;;;;;4.80;2.28;;;21.00;67.10;;;;;;5011356;28;20117;-56
2023/06/16 00:19:15;;;;;;;5.13;1.67;;;21.00;67.30;;;;;;5011972;28;20095;-57
2023/06/16 00:21:43;;;;;;;7.65;2.20;;;21.00;67.50;;;;;;5010802;28;20021;-58
2023/06/16 00:24:09;;;;;;;5.05;2.28;;;21.00;67.80;;;;;;5012116;28;20044;-57
2023/06/16 00:26:36;;;;;;;3.38;1.73;;;21.00;67.70;;;;;;5011081;28;20108;-57
2023/06/16 00:29:05;;;;;;;3.72;2.08;;;20.90;68.70;;;;;;4994434;28;20034;-55
2023/06/16 00:31:31;;;;;;;3.65;1.90;;;20.80;68.30;;;;;;5011302;28;20026;-56
2023/06/16 00:34:03;;;;;;;3.92;2.05;;;20.80;68.80;;;;;;4993861;28;20033;-57
2023/06/16 00:36:29;;;;;;;4.78;2.10;;;20.70;68.90;;;;;;4994252;28;20041;-54
2023/06/16 00:38:55;;;;;;;3.08;1.98;;;20.70;69.10;;;;;;5011311;28;20026;-57
2023/06/16 00:41:21;;;;;;;3.92;2.13;;;20.70;69.40;;;;;;5012074;28;20061;-56
2023/06/16 00:43:47;;;;;;;8.98;2.53;;;20.60;69.80;;;;;;4989933;28;20076;-57
2023/06/16 00:46:39;;;;;;;3.85;1.98;;;20.60;70.10;;;;;;5008677;28;20125;-58
2023/06/16 00:49:05;;;;;;;4.03;2.35;;;20.50;70.30;;;;;;5004554;28;20046;-57
2023/06/16 00:51:30;;;;;;;6.18;1.90;;;20.50;70.90;;;;;;4993317;28;20458;-58
2023/06/16 00:53:58;;;;;;;3.30;2.08;;;20.40;71.10;;;;;;5006536;28;20034;-54
2023/06/16 00:56:24;;;;;;;5.43;2.08;;;20.50;71.80;;;;;;5011093;28;20045;-57
2023/06/16 00:58:53;;;;;;;4.68;2.47;;;20.40;71.40;;;;;;4990071;28;20700;-53
2023/06/16 01:01:20;;;;;;;4.57;2.53;;;20.30;71.90;;;;;;5009347;28;20038;-56
2023/06/16 01:03:50;;;;;;;4.18;2.30;;;20.20;72.30;;;;;;5009749;28;20049;-54
2023/06/16 01:06:50;;;;;;;3.55;2.15;;;20.10;72.70;;;;;;5005678;28;20130;-55
2023/06/16 01:10:01;;;;;;;5.70;2.17;;;20.10;73.10;;;;;;5010898;28;20122;-53
2023/06/16 01:13:02;;;;;;;4.90;2.05;;;20.00;73.40;;;;;;4993242;28;20038;-54
2023/06/16 01:15:31;;;;;;;4.00;2.22;;;20.00;73.80;;;;;;5011321;28;20140;-54
2023/06/16 01:18:00;;;;;;;10.60;3.00;;;20.00;74.10;;;;;;5009867;28;20025;-52
2023/06/16 01:21:20;;;;;;;10.48;2.75;;;19.80;74.70;;;;;;4993846;28;20045;-56
2023/06/16 01:24:07;;;;;;;4.93;2.88;;;19.70;75.20;;;;;;5009460;28;20037;-54
2023/06/16 01:26:40;;;;;;;3.38;1.80;;;19.50;76.70;;;;;;4990043;28;20034;-55
2023/06/16 01:29:10;;;;;;;4.72;2.15;;;19.60;76.60;;;;;;5005217;28;20034;-55
2023/06/16 01:31:38;;;;;;;5.70;2.28;;;19.50;77.10;;;;;;4992968;28;20022;-59
2023/06/16 01:34:07;;;;;;;6.63;3.08;;;19.40;77.80;;;;;;5010622;28;20038;-55
2023/06/16 01:36:37;;;;;;;4.75;2.45;;;19.10;79.10;;;;;;5010201;28;20030;-57
2023/06/16 01:39:05;;;;;;;5.10;1.90;;;19.10;79.90;;;;;;4988932;28;20030;-56
2023/06/16 01:41:31;;;;;;;3.58;2.10;;;19.00;80.50;;;;;;4989916;28;20053;-57
2023/06/16 01:43:58;;;;;;;4.72;2.40;;;18.80;81.90;;;;;;5005582;28;20452;-55
2023/06/16 01:46:24;;;;;;;6.15;2.55;;;18.80;82.20;;;;;;4993521;28;20473;-55
2023/06/16 01:48:51;;;;;;;4.97;2.65;;;19.00;82.60;;;;;;4988953;28;20064;-58
2023/06/16 01:51:18;;;;;;;6.90;2.67;;;18.90;82.40;;;;;;5008381;28;20021;-57
2023/06/16 01:53:44;;;;;;;8.52;2.38;;;19.00;82.50;;;;;;5009470;28;20037;-57
2023/06/16 01:56:13;;;;;;;5.65;2.50;;;18.90;82.40;;;;;;5010619;28;20515;-54
2023/06/16 01:58:39;;;;;;;4.03;2.50;;;19.00;82.20;;;;;;5009423;28;20415;-57
2023/06/16 02:01:33;;;;;;;6.13;2.30;;;19.00;82.50;;;;;;5009350;28;20022;-58
2023/06/16 02:04:23;;;;;;;4.95;2.67;;;19.00;82.60;;;;;;4989639;28;20038;-57
2023/06/16 02:07:04;;;;;;;4.63;1.98;;;18.90;82.70;;;;;;4978324;28;20054;-58
2023/06/16 02:09:31;;;;;;;;;;;18.90;83.80;;;;;;5014975;28;20037;-56
2023/06/16 02:11:57;;;;;;;5.55;2.25;;;18.90;83.00;;;;;;4993382;28;19918;-54
2023/06/16 02:14:26;;;;;;;3.65;2.10;;;18.80;84.20;;;;;;4995356;28;20863;-56
2023/06/16 02:16:52;;;;;;;4.07;2.08;;;18.80;83.50;;;;;;4996300;28;20026;-54
2023/06/16 02:19:18;;;;;;;4.03;2.03;;;18.70;83.90;;;;;;5014170;28;20051;-57
2023/06/16 02:21:44;;;;;;;6.13;2.50;;;18.60;84.10;;;;;;4995473;28;20057;-57
2023/06/16 02:24:10;;;;;;;6.55;2.38;;;18.60;84.50;;;;;;5014469;28;20026;-57
2023/06/16 02:26:37;;;;;;;4.60;2.05;;;18.60;85.20;;;;;;4996236;28;20029;-55
2023/06/16 02:29:03;;;;;;;8.55;2.33;;;18.60;84.80;;;;;;5013929;28;20038;-57
2023/06/16 02:31:29;;;;;;;24.90;2.85;;;18.60;84.60;;;;;;4993778;28;20025;-56
2023/06/16 02:33:56;;;;;;;3.85;2.25;;;18.50;85.00;;;;;;5006064;28;20072;-60
2023/06/16 02:36:23;;;;;;;7.20;2.30;;;18.50;86.30;;;;;;5011822;28;20034;-56
2023/06/16 02:38:49;;;;;;;5.93;1.92;;;18.30;85.90;;;;;;4990197;28;20030;-56
2023/06/16 02:41:15;;;;;;;9.70;2.47;;;18.30;86.30;;;;;;5008896;28;20180;-57
2023/06/16 02:43:41;;;;;;;4.07;2.28;;;18.10;86.80;;;;;;5009790;28;20512;-57
2023/06/16 02:46:07;;;;;;;3.78;2.35;;;18.10;87.90;;;;;;5011280;28;20044;-52
2023/06/16 02:48:34;;;;;;;5.75;2.33;;;18.10;88.00;;;;;;4992727;28;20040;-57
2023/06/16 02:51:00;;;;;;;5.65;2.33;;;17.90;88.50;;;;;;4990300;28;20393;-56
2023/06/16 02:53:26;;;;;;;4.32;2.58;;;17.90;89.10;;;;;;5005936;28;20041;-56
2023/06/16 02:55:52;;;;;;;8.52;2.83;;;17.80;89.90;;;;;;5011366;28;20044;-57
2023/06/16 02:58:20;;;;;;;4.97;2.33;;;17.80;90.10;;;;;;5010649;28;20038;-59
2023/06/16 03:00:45;;;;;;;7.70;2.45;;;17.80;90.30;;;;;;4995434;28;20637;-55
2023/06/16 03:03:11;;;;;;;5.75;2.85;;;17.70;90.20;;;;;;5011840;28;20125;-57
2023/06/16 03:05:37;;;;;;;4.45;1.98;;;17.60;90.60;;;;;;5010788;28;20052;-55
2023/06/16 03:08:03;;;;;;;4.72;2.35;;;17.60;90.60;;;;;;4976611;28;20057;-55
2023/06/16 03:10:28;;;;;;;4.80;2.40;;;17.60;90.90;;;;;;5011470;28;20378;-58
2023/06/16 03:12:54;;;;;;;3.78;2.70;;;17.50;91.00;;;;;;5010669;28;20037;-56
2023/06/16 03:15:23;;;;;;;5.43;2.50;;;17.40;91.20;;;;;;5012558;28;20033;-55
2023/06/16 03:17:49;;;;;;;3.15;2.05;;;17.10;91.80;;;;;;5009840;28;20044;-56
2023/06/16 03:20:15;;;;;;;6.00;2.90;;;16.90;92.60;;;;;;5012016;28;20026;-57
2023/06/16 03:22:41;;;;;;;5.25;2.30;;;17.10;92.50;;;;;;5011188;28;20044;-55
2023/06/16 03:25:07;;;;;;;4.72;2.40;;;17.20;92.10;;;;;;5012151;28;20489;-57
2023/06/16 03:27:33;;;;;;;3.92;2.05;;;17.30;91.70;;;;;;5011268;28;20168;-55
2023/06/16 03:29:59;;;;;;;7.78;2.70;;;17.50;91.20;;;;;;4992947;23;20550;-52
2023/06/16 03:32:25;;;;;;;5.53;2.78;;;17.50;91.40;;;;;;4971849;28;20030;-51
2023/06/16 03:34:51;;;;;;;6.25;2.85;;;17.40;91.50;;;;;;4971522;28;20034;-52
2023/06/16 03:37:17;;;;;;;6.30;2.92;;;17.40;91.30;;;;;;4955183;28;20513;-49
2023/06/16 03:39:43;;;;;;;6.65;2.08;;;17.40;91.20;;;;;;4964888;28;20035;-50
2023/06/16 03:42:08;;;;;;;5.18;2.45;;;17.40;91.30;;;;;;4964333;28;20034;-53
2023/06/16 03:44:34;;;;;;;3.88;2.28;;;17.40;91.20;;;;;;4965133;28;20133;-53
2023/06/16 03:47:00;;;;;;;4.05;2.22;;;17.50;91.00;;;;;;4964750;28;20542;-52
2023/06/16 03:49:27;;;;;;;4.97;2.22;;;17.40;91.30;;;;;;4965307;28;20035;-55
2023/06/16 03:51:52;;;;;;;4.68;2.53;;;17.40;91.30;;;;;;4964756;28;20023;-52
2023/06/16 03:54:19;;;;;;;4.57;2.33;;;17.50;91.20;;;;;;4947863;28;20031;-55
2023/06/16 03:56:45;;;;;;;8.73;2.63;;;17.60;91.00;;;;;;4964602;28;20372;-51
2023/06/16 03:59:11;;;;;;;5.50;2.72;;;17.60;91.00;;;;;;4947892;28;20093;-53
2023/06/16 04:01:38;;;;;;;3.90;2.15;;;17.60;91.20;;;;;;4946517;28;20451;-53
2023/06/16 04:04:05;;;;;;;5.55;2.45;;;17.60;91.00;;;;;;4965225;28;20122;-52
2023/06/16 04:06:34;;;;;;;6.25;2.53;;;17.70;90.80;;;;;;4963842;28;20064;-53
2023/06/16 04:09:01;;;;;;;6.32;2.60;;;17.70;90.70;;;;;;4966106;28;20483;-53
2023/06/16 04:11:27;;;;;;;4.90;2.38;;;17.60;91.00;;;;;;4945766;28;20086;-52
2023/06/16 04:13:53;;;;;;;6.55;2.17;;;17.70;90.80;;;;;;4966949;28;20706;-52
2023/06/16 04:16:19;;;;;;;4.28;2.03;;;17.60;90.90;;;;;;4961747;28;20046;-50
2023/06/16 04:18:48;;;;;;;4.60;2.70;;;17.70;91.10;;;;;;4968337;28;20023;-50
2023/06/16 04:21:15;;;;;;;4.32;2.05;;;17.60;91.00;;;;;;4961562;28;20063;-53
2023/06/16 04:23:41;;;;;;;12.00;2.95;;;17.70;91.00;;;;;;4951405;28;20023;-53
2023/06/16 04:26:08;;;;;;;7.63;2.72;;;17.70;91.60;;;;;;4960476;28;20082;-53
2023/06/16 04:28:42;;;;;;;6.32;2.70;;;17.80;91.60;;;;;;4968274;28;20023;-52
2023/06/16 04:31:09;;;;;;;4.80;2.67;;;17.80;90.70;;;;;;4960639;28;20023;-53
2023/06/16 04:33:36;;;;;;;7.45;2.75;;;17.80;90.50;;;;;;4950713;28;20052;-53
2023/06/16 04:36:03;;;;;;;7.70;2.40;;;17.70;90.60;;;;;;4960339;28;20031;-53
2023/06/16 04:38:31;;;;;;;5.30;2.55;;;17.70;90.90;;;;;;4968097;28;20033;-52
2023/06/16 04:40:58;;;;;;;5.63;2.50;;;17.70;90.80;;;;;;4960035;28;20023;-53
2023/06/16 04:43:23;;;;;;;6.40;3.13;;;17.70;91.10;;;;;;4968256;28;20114;-54
2023/06/16 04:45:49;;;;;;;10.57;3.70;;;17.70;91.50;;;;;;4960240;28;20607;-53
2023/06/16 04:48:15;;;;;;;6.35;2.83;;;17.80;91.50;;;;;;4968957;28;20027;-53
2023/06/16 04:50:40;;;;;;;6.97;2.40;;;17.90;90.50;;;;;;4958128;28;20499;-50
2023/06/16 04:53:06;;;;;;;5.05;2.30;;;18.00;90.70;;;;;;4963592;28;20061;-52
2023/06/16 04:55:32;;;;;;;4.75;2.40;;;18.00;91.00;;;;;;4960554;28;20062;-54
2023/06/16 04:57:58;;;;;;;5.03;2.22;;;18.10;89.40;;;;;;4966434;28;20510;-51
2023/06/16 05:00:27;;;;;;;12.15;3.13;;;18.00;89.60;;;;;;4960395;28;20042;-52
2023/06/16 05:02:53;;;;;;;4.25;2.05;;;18.00;89.80;;;;;;4948348;28;20027;-52
2023/06/16 05:05:20;;;;;;;5.68;1.98;;;17.90;90.00;;;;;;4962094;28;20047;-54
2023/06/16 05:07:46;;;;;;;4.38;2.33;;;17.90;89.80;;;;;;4964687;28;20054;-51
2023/06/16 05:10:12;;;;;;;5.97;1.90;;;17.90;89.90;;;;;;4963591;28;20264;-54
2023/06/16 05:12:38;;;;;;;3.15;1.75;;;18.00;89.80;;;;;;4945098;28;20035;-53
2023/06/16 05:15:05;;;;;;;8.13;2.20;;;18.00;89.90;;;;;;4963274;28;20101;-49
2023/06/16 05:17:30;;;;;;;4.75;2.10;;;18.00;89.90;;;;;;4963552;28;20105;-47
2023/06/16 05:19:56;;;;;;;4.00;2.15;;;18.00;89.80;;;;;;4963078;28;20486;-46
2023/06/16 05:22:25;;;;;;;4.30;2.03;;;18.00;90.00;;;;;;4962794;28;20042;-48
2023/06/16 05:24:54;;;;;;;6.22;2.42;;;18.00;90.20;;;;;;4962936;28;20169;-47
2023/06/16 05:27:26;;;;;;;8.90;2.35;;;18.00;90.10;;;;;;4945800;28;20105;-51
2023/06/16 05:29:53;;;;;;;12.98;2.40;;;18.10;90.00;;;;;;4962317;28;20071;-49
2023/06/16 05:32:21;;;;;;;4.28;1.88;;;18.10;90.00;;;;;;4938105;28;20110;-46
2023/06/16 05:34:49;;;;;;;4.80;2.15;;;18.10;90.00;;;;;;4945512;28;20122;-48
2023/06/16 05:37:15;;;;;;;4.78;2.20;;;18.20;89.60;;;;;;4955772;28;20028;-52
2023/06/16 05:39:45;;;;;;;5.07;2.15;;;18.30;89.40;;;;;;4945206;28;20038;-48
2023/06/16 05:42:13;;;;;;;8.27;3.03;;;18.50;87.30;;;;;;4933267;28;20027;-49
2023/06/16 05:44:41;;;;;;;5.03;2.33;;;18.50;86.90;;;;;;4946249;28;20031;-53
2023/06/16 05:47:07;;;;;;;4.60;1.92;;;18.50;86.70;;;;;;4942473;28;20063;-53
2023/06/16 05:49:33;;;;;;;5.05;2.20;;;18.40;87.20;;;;;;4926860;28;20031;-51
2023/06/16 05:52:01;;;;;;;5.32;2.20;;;18.20;87.70;;;;;;4956556;28;20026;-47
2023/06/16 05:54:28;;;;;;;3.88;1.65;;;18.30;87.30;;;;;;4929085;28;20038;-52
2023/06/16 05:56:55;;;;;;;3.75;1.75;;;18.20;87.20;;;;;;4949600;28;20644;-50
2023/06/16 05:59:21;;;;;;;4.88;2.42;;;18.30;88.30;;;;;;4932120;28;20035;-50
2023/06/16 06:01:49;;;;;;;8.95;2.40;;;18.30;87.50;;;;;;4947708;28;20398;-53
2023/06/16 06:04:15;;;;;;;11.02;2.47;;;18.40;87.60;;;;;;4952173;28;20065;-49
2023/06/16 06:06:41;;;;;;;7.00;2.22;;;18.40;87.50;;;;;;4941195;28;20059;-53
2023/06/16 06:09:06;;;;;;;6.43;2.63;;;18.50;87.10;;;;;;4935687;29;20447;-49
2023/06/16 06:11:32;;;;;;;5.28;2.30;;;18.50;87.30;;;;;;4940883;28;20070;-51
2023/06/16 06:13:58;;;;;;;6.43;2.13;;;18.40;87.40;;;;;;4963073;28;20031;-51
2023/06/16 06:16:24;;;;;;;5.80;2.20;;;18.40;87.50;;;;;;4950692;28;20459;-52
2023/06/16 06:18:50;;;;;;;3.85;1.90;;;18.30;88.30;;;;;;4943831;28;20066;-52
2023/06/16 06:21:16;;;;;;;3.60;2.17;;;18.50;88.00;;;;;;4931819;28;20038;-53
2023/06/16 06:23:41;;;;;;;5.70;2.17;;;18.60;86.60;;;;;;4944985;29;20046;-54
2023/06/16 06:26:07;;;;;;;7.63;3.28;;;18.40;86.70;;;;;;4946072;28;20238;-47
2023/06/16 06:28:33;;;;;;;4.07;2.20;;;18.50;86.60;;;;;;4954441;28;20042;-49
2023/06/16 06:30:59;;;;;;;5.30;2.20;;;18.50;86.50;;;;;;4951156;28;20039;-53
2023/06/16 06:33:24;;;;;;;4.15;2.28;;;18.60;85.10;;;;;;4961454;28;20031;-53
2023/06/16 06:35:50;;;;;;;7.07;2.08;;;18.40;85.40;;;;;;4952805;28;20364;-52
2023/06/16 06:38:16;;;;;;;7.90;2.15;;;18.70;84.30;;;;;;4943059;28;20135;-53
2023/06/16 06:40:41;;;;;;;10.50;4.18;;;18.90;83.60;;;;;;4971071;28;20035;-49
2023/06/16 06:43:07;;;;;;;3.55;1.98;;;18.90;82.90;;;;;;4959288;28;20062;-47
2023/06/16 06:45:33;;;;;;;4.40;2.20;;;19.00;83.10;;;;;;4970616;28;20043;-51
2023/06/16 06:47:59;;;;;;;4.22;1.63;;;19.00;82.90;;;;;;4960604;28;20049;-54
2023/06/16 06:50:24;;;;;;;3.65;1.90;;;19.30;82.50;;;;;;4934023;28;20452;-53
2023/06/16 06:52:50;;;;;;;5.07;2.15;;;19.40;81.60;;;;;;4946201;28;20031;-51
2023/06/16 06:55:16;;;;;;;4.68;2.00;;;19.50;81.80;;;;;;4946111;28;20106;-53
2023/06/16 06:57:42;;;;;;;5.03;2.28;;;19.70;81.20;;;;;;4951752;28;20034;-52
2023/06/16 07:00:09;;;;;;;6.93;2.55;;;19.70;80.20;;;;;;4952511;28;20039;-48
2023/06/16 07:02:35;;;;;;;8.80;2.17;;;19.70;80.90;;;;;;4953955;28;20058;-50
2023/06/16 07:05:02;;;;;;;2.83;1.73;;;19.70;80.50;;;;;;4941854;29;20059;-53
2023/06/16 07:07:28;;;;;;;4.25;1.92;;;19.70;80.20;;;;;;4961403;28;20050;-52
2023/06/16 07:09:54;;;;;;;3.85;1.90;;;19.80;80.00;;;;;;4951295;28;20487;-53
2023/06/16 07:12:19;;;;;;;13.43;2.67;;;20.00;80.20;;;;;;4968232;28;20097;-52
2023/06/16 07:14:49;;;;;;;4.70;2.30;;;20.10;79.70;;;;;;4966012;28;20035;-53
2023/06/16 07:17:15;;;;;;;4.78;2.30;;;20.20;79.90;;;;;;4968298;28;20090;-52
2023/06/16 07:19:41;;;;;;;3.35;1.95;;;20.40;79.20;;;;;;4962217;28;20031;-51
2023/06/16 07:22:06;;;;;;;5.03;2.45;;;20.40;79.60;;;;;;4961022;28;20041;-53
2023/06/16 07:24:32;;;;;;;4.30;2.00;;;20.60;79.20;;;;;;4965927;28;20038;-63
2023/06/16 07:27:01;;;;;;;4.20;2.17;;;20.60;78.70;;;;;;4942129;28;20054;-63
2023/06/16 07:29:28;;;;;;;5.43;2.28;;;20.70;79.20;;;;;;4957159;28;20035;-64
2023/06/16 07:31:54;;;;;;;2.75;1.70;;;20.80;79.10;;;;;;4958642;28;20066;-63
2023/06/16 07:34:20;;;;;;;3.28;1.83;;;20.90;78.00;;;;;;4965986;28;20450;-63
2023/06/16 07:36:46;;;;;;;3.33;1.92;;;21.10;77.50;;;;;;4970008;28;20039;-63
2023/06/16 07:39:12;;;;;;;4.70;2.20;;;21.00;77.40;;;;;;4966055;28;20035;-63
2023/06/16 07:41:38;;;;;;;4.30;1.92;;;21.20;76.40;;;;;;4969548;28;20185;-63
2023/06/16 07:44:05;;;;;;;3.35;2.00;;;21.40;75.80;;;;;;4965731;28;20048;-63
2023/06/16 07:46:32;;;;;;;3.50;1.83;;;21.50;75.20;;;;;;4969848;28;20035;-63
2023/06/16 07:48:58;;;;;;;3.55;1.95;;;21.50;75.00;;;;;;4948702;28;20031;-63
2023/06/16 07:51:25;;;;;;;4.53;1.90;;;21.70;74.80;;;;;;4969698;28;20146;-64
2023/06/16 07:53:51;;;;;;;2.75;1.75;;;21.60;74.30;;;;;;4965345;28;20030;-64
2023/06/16 07:56:18;;;;;;;6.00;1.75;;;21.70;74.30;;;;;;4952921;28;20035;-65
2023/06/16 07:58:44;;;;;;;3.65;2.03;;;21.90;73.70;;;;;;4964428;28;20122;-64
2023/06/16 08:01:11;;;;;;;5.40;1.92;;;22.10;73.90;;;;;;4953592;28;20035;-64
2023/06/16 08:03:36;;;;;;;3.55;1.92;;;22.10;74.00;;;;;;4936705;28;20545;-64
2023/06/16 08:06:04;;;;;;;4.20;1.85;;;22.10;74.00;;;;;;4953724;28;20079;-64
2023/06/16 08:08:32;;;;;;;6.78;2.20;;;22.20;74.10;;;;;;4947543;28;20027;-64
2023/06/16 08:10:58;;;;;;;5.05;1.95;;;22.40;73.00;;;;;;4954497;28;20058;-64
2023/06/16 08:13:26;;;;;;;5.50;2.47;;;22.50;72.20;;;;;;4946223;28;20038;-64
2023/06/16 08:15:52;;;;;;;3.00;1.80;;;22.60;72.10;;;;;;4970889;28;20117;-64
2023/06/16 08:18:18;;;;;;;2.60;1.70;;;22.70;72.00;;;;;;4963036;28;20122;-64
2023/06/16 08:20:45;;;;;;;2.60;1.55;;;22.70;71.80;;;;;;4956223;28;20482;-64
2023/06/16 08:23:11;;;;;;;3.85;1.92;;;22.60;71.90;;;;;;4960502;28;20034;-64
2023/06/16 08:25:37;;;;;;;7.38;2.03;;;22.80;71.80;;;;;;4917760;29;20118;-64
2023/06/16 08:28:07;;;;;;;4.75;1.90;;;22.90;70.40;;;;;;4961050;28;20817;-64
2023/06/16 08:30:34;;;;;;;5.38;2.20;;;23.10;69.50;;;;;;4925200;29;20046;-64
2023/06/16 08:33:00;;;;;;;2.90;1.52;;;23.20;68.90;;;;;;4959064;28;20118;-64
2023/06/16 08:35:25;;;;;;;3.47;1.77;;;23.30;68.70;;;;;;4954289;28;20382;-64
2023/06/16 08:37:51;;;;;;;4.53;2.03;;;23.30;68.50;;;;;;4963787;28;20027;-64
2023/06/16 08:40:17;;;;;;;14.45;2.17;;;23.30;68.40;;;;;;4970609;28;20030;-64
2023/06/16 08:42:44;;;;;;;5.95;2.28;;;23.50;68.80;;;;;;4945048;29;20039;-64
2023/06/16 08:45:12;;;;;;;2.90;1.55;;;23.50;69.40;;;;;;4936438;28;20490;-65
2023/06/16 08:47:38;;;;;;;4.35;2.17;;;23.70;68.30;;;;;;4948216;29;20419;-65
2023/06/16 08:50:07;;;;;;;3.13;1.55;;;23.80;67.70;;;;;;4951226;28;20035;-64
2023/06/16 08:52:38;;;;;;;6.18;2.33;;;23.90;67.80;;;;;;4948679;28;20116;-65
2023/06/16 08:55:09;;;;;;;4.85;2.00;;;23.90;66.90;;;;;;4951256;28;20038;-64
2023/06/16 08:57:46;;;;;;;4.07;1.83;;;24.00;66.30;;;;;;4948829;28;20382;-65
2023/06/16 09:00:14;;;;;;;3.05;1.92;;;24.20;65.60;;;;;;4940212;28;20042;-64
2023/06/16 09:02:42;;;;;;;3.80;1.90;;;24.30;65.00;;;;;;4959185;28;20038;-64
2023/06/16 09:05:11;;;;;;;6.65;1.85;;;24.40;64.20;;;;;;4951739;28;20027;-64
2023/06/16 09:07:39;;;;;;;3.72;1.75;;;24.40;64.50;;;;;;4939638;28;20035;-64
2023/06/16 09:10:06;;;;;;;3.72;2.00;;;24.50;63.60;;;;;;4943293;28;20032;-65
2023/06/16 09:12:32;;;;;;;3.35;1.75;;;24.40;63.30;;;;;;4953126;28;20109;-65
2023/06/16 09:14:58;;;;;;;2.33;1.40;;;24.50;64.00;;;;;;4951420;28;20134;-64
2023/06/16 09:17:27;;;;;;;2.80;1.48;;;24.60;62.40;;;;;;4961490;28;20038;-64
2023/06/16 09:19:55;;;;;;;4.00;1.67;;;24.70;62.60;;;;;;4965316;28;20090;-64
2023/06/16 09:22:28;;;;;;;5.28;2.20;;;24.90;62.40;;;;;;4948089;28;20043;-65
2023/06/16 09:24:57;;;;;;;4.38;1.65;;;25.00;62.50;;;;;;4957605;28;20035;-64
2023/06/16 09:27:45;;;;;;;2.50;1.40;;;25.10;61.50;;;;;;4941992;28;20406;-64
2023/06/16 09:30:20;;;;;;;126.93;118.22;;;25.10;60.90;;;;;;4967869;23;20102;-61
2023/06/16 09:32:49;;;;;;;4.03;1.60;;;25.10;60.20;;;;;;4992509;28;20508;-61
2023/06/16 09:35:20;;;;;;;6.40;1.65;;;24.90;60.70;;;;;;4982229;28;20034;-63
2023/06/16 09:37:47;;;;;;;;;;;24.90;59.20;;;;;;4982590;28;20554;-61
2023/06/16 09:40:14;;;;;;;355.00;213.23;;;24.90;59.10;;;;;;4949171;28;20013;-61
2023/06/16 09:42:50;;;;;;;495.50;257.38;;;25.00;59.80;;;;;;4949362;28;20031;-61
2023/06/16 09:45:17;;;;;;;541.40;339.08;;;25.10;59.50;;;;;;4953015;28;20121;-61
2023/06/16 09:47:45;;;;;;;145.88;65.55;;;25.40;59.60;;;;;;4963487;28;20035;-64
2023/06/16 09:50:17;;;;;;;8.02;1.95;;;25.40;59.60;;;;;;4961651;28;20082;-59
2023/06/16 09:52:47;;;;;;;5.65;1.92;;;25.40;59.80;;;;;;4943624;28;20039;-59
2023/06/16 09:55:14;;;;;;;2.45;1.42;;;25.60;58.80;;;;;;4946562;28;20530;-61
2023/06/16 09:57:46;;;;;;;4.13;1.95;;;25.70;58.30;;;;;;4943049;28;20027;-60
2023/06/16 10:00:16;;;;;;;5.32;2.45;;;25.70;58.30;;;;;;4946374;28;20080;-61
2023/06/16 10:02:43;;;;;;;1.95;1.30;;;25.80;59.00;;;;;;4946104;28;20082;-61
2023/06/16 10:05:16;;;;;;;3.60;1.55;;;25.90;59.30;;;;;;4945244;28;20035;-61
2023/06/16 10:07:56;;;;;;;5.25;1.38;;;26.10;59.30;;;;;;4949256;28;20138;-61
2023/06/16 10:10:27;;;;;;;;;;;26.30;57.10;;;;;;4947654;28;20499;-62
2023/06/16 10:12:55;;;;;;;6.10;1.73;;;26.40;57.10;;;;;;4942653;28;19960;-61
2023/06/16 10:15:22;;;;;;;4.68;1.70;;;26.50;57.90;;;;;;4946242;28;20023;-60
2023/06/16 10:17:50;;;;;;;4.68;1.60;;;26.60;56.30;;;;;;4944728;28;20035;-62
2023/06/16 10:20:24;;;;;;;1.98;1.20;;;26.40;57.50;;;;;;4946766;28;20027;-62
2023/06/16 10:22:50;;;;;;;3.72;1.80;;;26.40;57.00;;;;;;4943460;28;20391;-62
2023/06/16 10:25:17;;;;;;;5.95;1.70;;;26.40;56.60;;;;;;4956023;28;20031;-61
2023/06/16 10:27:44;;;;;;;5.32;1.85;;;26.40;55.70;;;;;;4954825;28;20073;-60
2023/06/16 10:30:16;;;;;;;5.65;1.55;;;26.40;56.30;;;;;;4957668;28;20023;-59
2023/06/16 10:32:55;;;;;;;3.90;1.83;;;26.50;57.80;;;;;;4945860;28;20114;-61
2023/06/16 10:35:22;;;;;;;3.78;1.50;;;26.50;56.70;;;;;;4951368;28;20484;-60
2023/06/16 10:37:58;;;;;;;3.42;1.58;;;26.60;56.40;;;;;;4948639;28;20032;-60
2023/06/16 10:40:25;;;;;;;4.30;1.83;;;26.70;57.10;;;;;;4952759;28;20027;-61
2023/06/16 10:42:57;;;;;;;3.08;1.65;;;26.90;56.60;;;;;;4971276;28;20057;-61
2023/06/16 10:45:35;;;;;;;4.20;1.50;;;27.00;55.00;;;;;;4962644;28;20038;-60
2023/06/16 10:48:04;;;;;;;3.72;2.03;;;27.20;55.30;;;;;;4969724;28;20041;-60
2023/06/16 10:50:33;;;;;;;4.32;1.75;;;27.30;54.90;;;;;;4957894;28;20154;-61
2023/06/16 10:53:18;;;;;;;4.22;1.77;;;27.20;54.60;;;;;;4948543;28;20043;-61
2023/06/16 10:55:45;;;;;;;5.32;2.13;;;27.10;54.80;;;;;;4961257;28;20022;-61
2023/06/16 10:58:17;;;;;;;3.97;1.95;;;27.30;54.90;;;;;;4967777;28;20615;-60
2023/06/16 11:00:44;;;;;;;4.85;1.70;;;27.30;54.70;;;;;;4965530;28;20100;-61
2023/06/16 11:03:10;;;;;;;2.45;1.38;;;27.20;54.80;;;;;;4968639;28;20035;-61
2023/06/16 11:05:40;;;;;;;5.28;1.75;;;27.60;53.10;;;;;;4958722;28;20038;-61
2023/06/16 11:08:09;;;;;;;3.47;1.80;;;27.70;52.50;;;;;;4969224;28;20081;-62
2023/06/16 11:10:52;;;;;;;4.57;1.73;;;27.70;53.30;;;;;;4966369;28;20502;-61
2023/06/16 11:13:23;;;;;;;2.75;1.55;;;27.90;52.20;;;;;;4949268;28;20036;-60
2023/06/16 11:15:49;;;;;;;4.05;1.95;;;27.90;52.80;;;;;;4948792;28;20038;-61
2023/06/16 11:18:16;;;;;;;3.63;1.40;;;28.00;52.30;;;;;;4948736;28;20035;-61
2023/06/16 11:20:42;;;;;;;5.30;1.60;;;28.10;53.60;;;;;;4947213;28;20035;-61
2023/06/16 11:23:08;;;;;;;6.68;2.40;;;28.30;53.00;;;;;;4948595;28;20037;-61
2023/06/16 11:25:37;;;;;;;4.07;2.00;;;28.50;52.10;;;;;;4950254;28;20027;-60
2023/06/16 11:28:04;;;;;;;5.47;1.42;;;28.60;51.60;;;;;;4948729;28;20094;-61
2023/06/16 11:30:30;;;;;;;4.95;1.65;;;28.70;52.50;;;;;;4951426;28;20529;-61
2023/06/16 11:32:57;;;;;;;3.30;1.83;;;28.50;53.10;;;;;;4946770;28;20035;-61
2023/06/16 11:35:33;;;;;;;7.68;2.00;;;28.90;52.00;;;;;;4959448;28;20487;-60
2023/06/16 11:37:59;;;;;;;4.93;1.70;;;28.90;51.80;;;;;;4966723;28;20046;-60
2023/06/16 11:40:32;;;;;;;8.38;1.83;;;28.70;52.00;;;;;;4963309;28;20384;-61
2023/06/16 11:43:06;;;;;;;3.00;1.80;;;28.50;52.90;;;;;;4968008;28;20449;-61
2023/06/16 11:45:37;;;;;;;1.80;1.25;;;28.80;52.60;;;;;;4965482;28;20463;-63
2023/06/16 11:48:06;;;;;;;4.50;1.85;;;29.20;52.40;;;;;;4966875;28;20591;-61
2023/06/16 11:50:32;;;;;;;3.63;1.67;;;29.20;53.30;;;;;;4965155;28;20039;-62
2023/06/16 11:52:58;;;;;;;3.60;1.60;;;29.10;51.70;;;;;;4962367;28;20395;-60
2023/06/16 11:55:25;;;;;;;2.95;1.67;;;28.40;52.00;;;;;;4964511;28;20430;-61
2023/06/16 11:57:51;;;;;;;4.68;2.13;;;28.80;52.80;;;;;;4962771;28;20041;-61
2023/06/16 12:00:19;;;;;;;3.75;1.80;;;29.40;52.60;;;;;;4958753;28;20035;-61
2023/06/16 12:02:50;;;;;;;3.10;1.60;;;29.40;51.70;;;;;;4943015;28;20031;-61
2023/06/16 12:05:27;;;;;;;4.35;1.40;;;29.50;51.10;;;;;;4956250;28;20062;-60
2023/06/16 12:07:53;;;;;;;2.22;1.38;;;29.50;51.60;;;;;;4949336;28;20034;-61
2023/06/16 12:10:19;;;;;;;4.22;1.60;;;29.10;51.50;;;;;;4965076;28;20037;-61
2023/06/16 12:12:47;;;;;;;3.08;1.65;;;29.40;50.90;;;;;;4967811;28;20085;-61
2023/06/16 12:15:18;;;;;;;3.90;2.22;;;29.60;50.90;;;;;;4963829;28;20060;-60
2023/06/16 12:17:47;;;;;;;2.67;1.33;;;29.40;51.10;;;;;;4966696;28;20097;-61
2023/06/16 12:20:13;;;;;;;3.72;1.58;;;29.60;51.30;;;;;;4963552;28;20078;-61
2023/06/16 12:22:39;;;;;;;3.47;1.48;;;29.80;50.40;;;;;;4955202;28;20498;-61
2023/06/16 12:25:14;;;;;;;5.03;1.17;;;29.90;50.50;;;;;;4951237;28;20043;-66
2023/06/16 12:27:51;;;;;;;5.38;1.48;;;29.60;51.70;;;;;;4956854;28;20019;-61
2023/06/16 12:30:18;;;;;;;4.18;1.77;;;29.70;50.70;;;;;;4955964;28;20035;-61
2023/06/16 12:32:45;;;;;;;3.25;1.50;;;29.60;50.70;;;;;;4957215;28;20484;-59
2023/06/16 12:35:12;;;;;;;4.45;1.67;;;29.50;50.80;;;;;;4957831;28;20603;-60
2023/06/16 12:37:41;;;;;;;5.53;1.58;;;29.30;51.70;;;;;;4964744;28;20033;-61
2023/06/16 12:40:11;;;;;;;3.58;1.50;;;29.20;52.20;;;;;;4968325;28;20045;-61
2023/06/16 12:42:38;;;;;;;3.33;1.60;;;29.10;52.00;;;;;;4960378;28;20131;-61
2023/06/16 12:45:06;;;;;;;2.67;1.42;;;28.90;51.70;;;;;;4949321;28;20139;-61
2023/06/16 12:47:33;;;;;;;3.35;1.92;;;28.80;52.00;;;;;;4947445;28;20114;-61
2023/06/16 12:50:02;;;;;;;5.18;1.70;;;29.10;52.70;;;;;;4961260;28;20042;-61
2023/06/16 12:52:29;;;;;;;4.15;1.63;;;29.30;51.60;;;;;;4959289;28;20037;-61